sensor_id;sensor_type;location;lat;lon;timestamp;pressure;altitude;pressure_sealevel;temperature;humidity
26657;BME280;14279;50.010;8.260;2023-12-07T00:02:23;100834.06;;;3.24;85.17
26657;BME280;14279;50.010;8.260;2023-12-07T00:04:49;100838.38;;;3.20;85.56
26657;BME280;14279;50.010;8.260;2023-12-07T00:07:14;100839.28;;;3.16;85.58
26657;BME280;14279;50.010;8.260;2023-12-07T00:09:39;100839.19;;;3.24;85.60
26657;BME280;14279;50.010;8.260;2023-12-07T00:12:05;100841.75;;;3.27;85.41
26657;BME280;14279;50.010;8.260;2023-12-07T00:14:31;100839.19;;;3.25;85.43
26657;BME280;14279;50.010;8.260;2023-12-07T00:16:56;100843.47;;;3.25;85.47
26657;BME280;14279;50.010;8.260;2023-12-07T00:19:22;100847.84;;;3.18;85.47
26657;BME280;14279;50.010;8.260;2023-12-07T00:21:47;100843.53;;;3.20;85.96
26657;BME280;14279;50.010;8.260;2023-12-07T00:24:12;100840.03;;;3.27;85.79
26657;BME280;14279;50.010;8.260;2023-12-07T00:26:38;100852.88;;;3.32;85.35
26657;BME280;14279;50.010;8.260;2023-12-07T00:29:03;100852.88;;;3.30;85.80
26657;BME280;14279;50.010;8.260;2023-12-07T00:31:28;100858.00;;;3.34;85.33
26657;BME280;14279;50.010;8.260;2023-12-07T00:33:54;100854.53;;;3.38;85.42
26657;BME280;14279;50.010;8.260;2023-12-07T00:36:19;100865.69;;;3.37;85.38
26657;BME280;14279;50.010;8.260;2023-12-07T00:38:44;100860.50;;;3.43;85.07
26657;BME280;14279;50.010;8.260;2023-12-07T00:41:11;100854.50;;;3.39;84.65
26657;BME280;14279;50.010;8.260;2023-12-07T00:43:36;100858.84;;;3.36;85.12
26657;BME280;14279;50.010;8.260;2023-12-07T00:46:01;100858.84;;;3.36;84.96
26657;BME280;14279;50.010;8.260;2023-12-07T00:48:27;100865.66;;;3.40;85.07
26657;BME280;14279;50.010;8.260;2023-12-07T00:50:52;100865.66;;;3.43;84.69
26657;BME280;14279;50.010;8.260;2023-12-07T00:53:18;100870.00;;;3.31;84.98
26657;BME280;14279;50.010;8.260;2023-12-07T00:55:43;100868.28;;;3.34;85.18
26657;BME280;14279;50.010;8.260;2023-12-07T00:58:09;100869.09;;;3.37;85.07
26657;BME280;14279;50.010;8.260;2023-12-07T01:00:34;100866.56;;;3.33;85.23
26657;BME280;14279;50.010;8.260;2023-12-07T01:02:59;100875.13;;;3.38;85.38
26657;BME280;14279;50.010;8.260;2023-12-07T01:05:25;100877.66;;;3.41;85.60
26657;BME280;14279;50.010;8.260;2023-12-07T01:07:51;100881.19;;;3.32;85.50
26657;BME280;14279;50.010;8.260;2023-12-07T01:10:16;100882.91;;;3.30;86.33
26657;BME280;14279;50.010;8.260;2023-12-07T01:12:41;100885.63;;;3.11;87.55
26657;BME280;14279;50.010;8.260;2023-12-07T01:15:07;100889.84;;;3.19;87.44
26657;BME280;14279;50.010;8.260;2023-12-07T01:17:32;100889.84;;;3.19;87.02
26657;BME280;14279;50.010;8.260;2023-12-07T01:19:57;100898.44;;;3.19;87.58
26657;BME280;14279;50.010;8.260;2023-12-07T01:22:22;100900.13;;;3.22;87.30
26657;BME280;14279;50.010;8.260;2023-12-07T01:24:48;100895.84;;;3.19;86.39
26657;BME280;14279;50.010;8.260;2023-12-07T01:27:13;100888.16;;;3.13;85.87
26657;BME280;14279;50.010;8.260;2023-12-07T01:29:38;100892.50;;;3.09;85.84
26657;BME280;14279;50.010;8.260;2023-12-07T01:32:04;100901.91;;;3.10;86.25
26657;BME280;14279;50.010;8.260;2023-12-07T01:34:31;100908.78;;;3.11;86.42
26657;BME280;14279;50.010;8.260;2023-12-07T01:36:57;100908.78;;;3.11;85.88
26657;BME280;14279;50.010;8.260;2023-12-07T01:39:23;100907.03;;;3.12;86.37
26657;BME280;14279;50.010;8.260;2023-12-07T01:41:48;100908.75;;;3.10;86.35
26657;BME280;14279;50.010;8.260;2023-12-07T01:44:13;100902.78;;;3.05;87.05
26657;BME280;14279;50.010;8.260;2023-12-07T01:46:39;100898.50;;;3.07;86.24
26657;BME280;14279;50.010;8.260;2023-12-07T01:49:04;100895.97;;;2.99;86.09
26657;BME280;14279;50.010;8.260;2023-12-07T01:51:30;100896.00;;;2.93;85.96
26657;BME280;14279;50.010;8.260;2023-12-07T01:53:55;100910.59;;;2.89;86.13
26657;BME280;14279;50.010;8.260;2023-12-07T01:56:23;100913.22;;;2.81;86.82
26657;BME280;14279;50.010;8.260;2023-12-07T01:58:50;100906.34;;;2.83;86.93
26657;BME280;14279;50.010;8.260;2023-12-07T02:01:16;100908.91;;;2.87;87.31
26657;BME280;14279;50.010;8.260;2023-12-07T02:03:41;100909.75;;;2.87;87.31
26657;BME280;14279;50.010;8.260;2023-12-07T02:06:07;100909.78;;;2.85;87.21
26657;BME280;14279;50.010;8.260;2023-12-07T02:08:34;100914.06;;;2.85;87.42
26657;BME280;14279;50.010;8.260;2023-12-07T02:11:00;100905.50;;;2.84;87.13
26657;BME280;14279;50.010;8.260;2023-12-07T02:13:25;100906.34;;;2.82;86.77
26657;BME280;14279;50.010;8.260;2023-12-07T02:15:52;100910.72;;;2.70;87.31
26657;BME280;14279;50.010;8.260;2023-12-07T02:18:27;100913.34;;;2.53;89.75
26657;BME280;14279;50.010;8.260;2023-12-07T02:21:21;100924.47;;;2.62;89.60
26657;BME280;14279;50.010;8.260;2023-12-07T02:23:50;100922.72;;;2.62;89.35
26657;BME280;14279;50.010;8.260;2023-12-07T02:26:18;100927.03;;;2.62;90.14
26657;BME280;14279;50.010;8.260;2023-12-07T02:28:45;100924.44;;;2.63;89.54
26657;BME280;14279;50.010;8.260;2023-12-07T02:31:10;100927.03;;;2.62;88.67
26657;BME280;14279;50.010;8.260;2023-12-07T02:33:36;100921.88;;;2.57;88.66
26657;BME280;14279;50.010;8.260;2023-12-07T02:36:01;100915.03;;;2.59;88.87
26657;BME280;14279;50.010;8.260;2023-12-07T02:38:28;100921.88;;;2.60;88.99
26657;BME280;14279;50.010;8.260;2023-12-07T02:40:54;100921.03;;;2.58;89.24
26657;BME280;14279;50.010;8.260;2023-12-07T02:43:20;100921.88;;;2.60;88.84
26657;BME280;14279;50.010;8.260;2023-12-07T02:45:47;100923.63;;;2.57;88.60
26657;BME280;14279;50.010;8.260;2023-12-07T02:48:13;100915.91;;;2.60;88.31
26657;BME280;14279;50.010;8.260;2023-12-07T02:50:38;100915.06;;;2.58;88.43
26657;BME280;14279;50.010;8.260;2023-12-07T02:53:03;100913.38;;;2.52;88.61
26657;BME280;14279;50.010;8.260;2023-12-07T02:55:29;100916.81;;;2.48;88.89
26657;BME280;14279;50.010;8.260;2023-12-07T02:57:54;100920.22;;;2.51;88.48
26657;BME280;14279;50.010;8.260;2023-12-07T03:00:19;100921.94;;;2.48;88.55
26657;BME280;14279;50.010;8.260;2023-12-07T03:02:46;100915.09;;;2.37;88.65
26657;BME280;14279;50.010;8.260;2023-12-07T03:05:13;100917.69;;;2.39;89.11
26657;BME280;14279;50.010;8.260;2023-12-07T03:07:38;100927.97;;;2.34;88.87
26657;BME280;14279;50.010;8.260;2023-12-07T03:10:04;100934.81;;;2.32;90.17
26657;BME280;14279;50.010;8.260;2023-12-07T03:12:29;100932.25;;;2.35;90.61
26657;BME280;14279;50.010;8.260;2023-12-07T03:14:54;100939.13;;;2.29;90.81
26657;BME280;14279;50.010;8.260;2023-12-07T03:17:20;100932.31;;;2.15;92.03
26657;BME280;14279;50.010;8.260;2023-12-07T03:19:45;100933.19;;;2.14;92.37
26657;BME280;14279;50.010;8.260;2023-12-07T03:22:10;100934.00;;;2.15;91.56
26657;BME280;14279;50.010;8.260;2023-12-07T03:24:38;100934.00;;;2.18;91.99
26657;BME280;14279;50.010;8.260;2023-12-07T03:27:04;100923.72;;;2.27;91.84
26657;BME280;14279;50.010;8.260;2023-12-07T03:29:31;100925.38;;;2.40;91.58
26657;BME280;14279;50.010;8.260;2023-12-07T03:31:56;100917.69;;;2.37;90.66
26657;BME280;14279;50.010;8.260;2023-12-07T03:34:22;100909.13;;;2.37;91.00
26657;BME280;14279;50.010;8.260;2023-12-07T03:36:48;100915.16;;;2.28;90.35
26657;BME280;14279;50.010;8.260;2023-12-07T03:39:14;100920.28;;;2.36;90.19
26657;BME280;14279;50.010;8.260;2023-12-07T03:41:40;100927.09;;;2.38;89.88
26657;BME280;14279;50.010;8.260;2023-12-07T03:44:05;100942.56;;;2.21;89.18
26657;BME280;14279;50.010;8.260;2023-12-07T03:46:31;100939.19;;;1.73;91.82
26657;BME280;14279;50.010;8.260;2023-12-07T03:48:56;100934.94;;;1.65;92.29
26657;BME280;14279;50.010;8.260;2023-12-07T03:51:21;100934.06;;;1.80;91.56
26657;BME280;14279;50.010;8.260;2023-12-07T03:53:46;100957.16;;;1.87;91.20
26657;BME280;14279;50.010;8.260;2023-12-07T03:56:25;100953.75;;;1.80;91.93
26657;BME280;14279;50.010;8.260;2023-12-07T03:58:51;100961.44;;;1.71;92.66
26657;BME280;14279;50.010;8.260;2023-12-07T04:01:16;100958.00;;;1.58;93.42
26657;BME280;14279;50.010;8.260;2023-12-07T04:03:41;100957.16;;;1.59;93.44
26657;BME280;14279;50.010;8.260;2023-12-07T04:06:07;100956.31;;;1.63;93.14
26657;BME280;14279;50.010;8.260;2023-12-07T04:08:32;100953.75;;;1.66;93.24
26657;BME280;14279;50.010;8.260;2023-12-07T04:10:58;100958.88;;;1.77;93.05
26657;BME280;14279;50.010;8.260;2023-12-07T04:13:23;100958.88;;;1.77;93.04
26657;BME280;14279;50.010;8.260;2023-12-07T04:15:48;100968.28;;;1.84;92.92
26657;BME280;14279;50.010;8.260;2023-12-07T04:18:14;100967.44;;;1.90;92.56
26657;BME280;14279;50.010;8.260;2023-12-07T04:20:39;100963.16;;;1.92;92.35
26657;BME280;14279;50.010;8.260;2023-12-07T04:23:04;100955.44;;;1.97;92.47
26657;BME280;14279;50.010;8.260;2023-12-07T04:25:29;100950.31;;;2.03;92.11
26657;BME280;14279;50.010;8.260;2023-12-07T04:27:55;100953.72;;;2.06;91.96
26657;BME280;14279;50.010;8.260;2023-12-07T04:30:20;100952.88;;;2.09;91.35
26657;BME280;14279;50.010;8.260;2023-12-07T04:32:45;100951.13;;;2.06;91.36
26657;BME280;14279;50.010;8.260;2023-12-07T04:35:10;100952.00;;;2.05;91.57
26657;BME280;14279;50.010;8.260;2023-12-07T04:37:36;100958.84;;;2.14;91.78
26657;BME280;14279;50.010;8.260;2023-12-07T04:40:01;100957.97;;;2.21;91.23
26657;BME280;14279;50.010;8.260;2023-12-07T04:42:27;100963.13;;;2.23;91.52
26657;BME280;14279;50.010;8.260;2023-12-07T04:44:53;100967.38;;;2.25;91.20
26657;BME280;14279;50.010;8.260;2023-12-07T04:47:18;100955.41;;;2.31;90.30
26657;BME280;14279;50.010;8.260;2023-12-07T04:49:43;100961.41;;;2.25;90.55
26657;BME280;14279;50.010;8.260;2023-12-07T04:52:09;100968.25;;;2.23;90.05
26657;BME280;14279;50.010;8.260;2023-12-07T04:54:34;100960.56;;;2.20;89.93
26657;BME280;14279;50.010;8.260;2023-12-07T04:56:59;100964.81;;;2.22;90.24
26657;BME280;14279;50.010;8.260;2023-12-07T04:59:24;100957.13;;;2.21;90.22
26657;BME280;14279;50.010;8.260;2023-12-07T05:01:50;100956.28;;;2.16;89.61
26657;BME280;14279;50.010;8.260;2023-12-07T05:04:15;100960.56;;;2.12;90.15
26657;BME280;14279;50.010;8.260;2023-12-07T05:06:41;100956.28;;;2.13;90.11
26657;BME280;14279;50.010;8.260;2023-12-07T05:09:06;100964.84;;;2.05;90.11
26657;BME280;14279;50.010;8.260;2023-12-07T05:11:34;100980.28;;;1.90;90.39
26657;BME280;14279;50.010;8.260;2023-12-07T05:13:59;100969.16;;;1.75;91.44
26657;BME280;14279;50.010;8.260;2023-12-07T05:16:25;100971.69;;;1.47;93.21
26657;BME280;14279;50.010;8.260;2023-12-07T05:18:50;100967.41;;;1.37;93.87
26657;BME280;14279;50.010;8.260;2023-12-07T05:21:15;100976.81;;;1.33;94.28
26657;BME280;14279;50.010;8.260;2023-12-07T05:23:41;100979.38;;;1.33;94.34
26657;BME280;14279;50.010;8.260;2023-12-07T05:26:06;100980.22;;;1.29;94.87
26657;BME280;14279;50.010;8.260;2023-12-07T05:28:33;100977.66;;;1.32;94.57
26657;BME280;14279;50.010;8.260;2023-12-07T05:30:58;100983.63;;;1.36;94.89
26657;BME280;14279;50.010;8.260;2023-12-07T05:33:23;100985.34;;;1.28;94.80
26657;BME280;14279;50.010;8.260;2023-12-07T05:35:50;100976.81;;;1.29;95.30
26657;BME280;14279;50.010;8.260;2023-12-07T05:38:15;100975.09;;;1.31;94.84
26657;BME280;14279;50.010;8.260;2023-12-07T05:40:40;100969.09;;;1.33;94.89
26657;BME280;14279;50.010;8.260;2023-12-07T05:43:06;100963.13;;;1.42;94.68
26657;BME280;14279;50.010;8.260;2023-12-07T05:45:33;100968.25;;;1.47;94.26
26657;BME280;14279;50.010;8.260;2023-12-07T05:47:58;100971.69;;;1.47;93.92
26657;BME280;14279;50.010;8.260;2023-12-07T05:50:23;100974.25;;;1.49;93.75
26657;BME280;14279;50.010;8.260;2023-12-07T05:52:49;100984.53;;;1.52;93.38
26657;BME280;14279;50.010;8.260;2023-12-07T05:55:14;100973.41;;;1.45;93.69
26657;BME280;14279;50.010;8.260;2023-12-07T05:57:40;100984.53;;;1.47;93.76
26657;BME280;14279;50.010;8.260;2023-12-07T06:00:06;100980.25;;;1.53;93.99
26657;BME280;14279;50.010;8.260;2023-12-07T06:02:35;100987.09;;;1.57;93.60
26657;BME280;14279;50.010;8.260;2023-12-07T06:05:01;100980.25;;;1.48;93.48
26657;BME280;14279;50.010;8.260;2023-12-07T06:07:28;100980.25;;;1.53;93.15
26657;BME280;14279;50.010;8.260;2023-12-07T06:09:53;100981.09;;;1.53;93.00
26657;BME280;14279;50.010;8.260;2023-12-07T06:12:18;100973.41;;;1.53;92.77
26657;BME280;14279;50.010;8.260;2023-12-07T06:14:44;100983.69;;;1.48;92.71
26657;BME280;14279;50.010;8.260;2023-12-07T06:17:09;100984.53;;;1.52;92.21
26657;BME280;14279;50.010;8.260;2023-12-07T06:19:34;100981.97;;;1.52;92.28
26657;BME280;14279;50.010;8.260;2023-12-07T06:21:59;100983.69;;;1.56;92.50
26657;BME280;14279;50.010;8.260;2023-12-07T06:24:25;100987.13;;;1.54;92.36
26657;BME280;14279;50.010;8.260;2023-12-07T06:26:51;100991.38;;;1.44;92.82
26657;BME280;14279;50.010;8.260;2023-12-07T06:29:17;100988.81;;;1.41;93.02
26657;BME280;14279;50.010;8.260;2023-12-07T06:31:44;100993.06;;;1.42;92.92
26657;BME280;14279;50.010;8.260;2023-12-07T06:34:09;100995.63;;;1.45;92.96
26657;BME280;14279;50.010;8.260;2023-12-07T06:36:34;100999.03;;;1.33;93.06
26657;BME280;14279;50.010;8.260;2023-12-07T06:39:01;101012.69;;;1.23;93.63
26657;BME280;14279;50.010;8.260;2023-12-07T06:41:28;101018.72;;;1.31;93.60
26657;BME280;14279;50.010;8.260;2023-12-07T06:43:53;101016.16;;;1.35;93.19
26657;BME280;14279;50.010;8.260;2023-12-07T06:46:19;101020.47;;;1.61;93.51
26657;BME280;14279;50.010;8.260;2023-12-07T06:48:44;101024.72;;;1.45;93.10
26657;BME280;14279;50.010;8.260;2023-12-07T06:51:09;101038.41;;;1.57;92.32
26657;BME280;14279;50.010;8.260;2023-12-07T06:53:35;101034.97;;;1.47;92.21
26657;BME280;14279;50.010;8.260;2023-12-07T06:56:00;101034.94;;;1.36;93.07
26657;BME280;14279;50.010;8.260;2023-12-07T06:58:25;101040.88;;;1.21;93.84
26657;BME280;14279;50.010;8.260;2023-12-07T07:00:50;101042.59;;;1.22;93.25
26657;BME280;14279;50.010;8.260;2023-12-07T07:03:16;101041.75;;;1.20;93.48
26657;BME280;14279;50.010;8.260;2023-12-07T07:05:42;101035.78;;;1.35;94.18
26657;BME280;14279;50.010;8.260;2023-12-07T07:08:07;101045.22;;;1.34;92.98
26657;BME280;14279;50.010;8.260;2023-12-07T07:10:34;101054.50;;;1.03;93.16
26657;BME280;14279;50.010;8.260;2023-12-07T07:13:02;101046.78;;;1.01;94.57
26657;BME280;14279;50.010;8.260;2023-12-07T07:15:30;101043.38;;;1.02;94.78
26657;BME280;14279;50.010;8.260;2023-12-07T07:17:55;101045.19;;;1.27;93.81
26657;BME280;14279;50.010;8.260;2023-12-07T07:20:20;101052.06;;;1.32;94.38
26657;BME280;14279;50.010;8.260;2023-12-07T07:22:47;101051.19;;;1.35;93.38
26657;BME280;14279;50.010;8.260;2023-12-07T07:25:13;101049.50;;;1.39;93.37
26657;BME280;14279;50.010;8.260;2023-12-07T07:27:40;101040.13;;;1.45;93.08
26657;BME280;14279;50.010;8.260;2023-12-07T07:30:06;101040.97;;;1.43;92.29
26657;BME280;14279;50.010;8.260;2023-12-07T07:32:31;101046.06;;;1.33;92.83
26657;BME280;14279;50.010;8.260;2023-12-07T07:34:56;101053.75;;;1.26;93.25
26657;BME280;14279;50.010;8.260;2023-12-07T07:37:22;101054.53;;;1.15;93.74
26657;BME280;14279;50.010;8.260;2023-12-07T07:39:47;101046.00;;;1.07;93.78
26657;BME280;14279;50.010;8.260;2023-12-07T07:42:12;101040.81;;;0.99;94.50
26657;BME280;14279;50.010;8.260;2023-12-07T07:44:38;101048.56;;;1.07;94.58
26657;BME280;14279;50.010;8.260;2023-12-07T07:47:03;101043.47;;;1.26;94.09
26657;BME280;14279;50.010;8.260;2023-12-07T07:49:29;101023.81;;;1.25;93.98
26657;BME280;14279;50.010;8.260;2023-12-07T07:51:54;101025.53;;;1.27;94.07
26657;BME280;14279;50.010;8.260;2023-12-07T07:54:19;101012.69;;;1.23;94.03
26657;BME280;14279;50.010;8.260;2023-12-07T07:56:44;101011.00;;;1.31;94.01
26657;BME280;14279;50.010;8.260;2023-12-07T07:59:10;101007.59;;;1.32;94.37
26657;BME280;14279;50.010;8.260;2023-12-07T08:01:36;100999.91;;;1.44;93.69
26657;BME280;14279;50.010;8.260;2023-12-07T08:04:01;101007.63;;;1.52;93.27
26657;BME280;14279;50.010;8.260;2023-12-07T08:06:27;101008.50;;;1.65;93.16
26657;BME280;14279;50.010;8.260;2023-12-07T08:08:52;101014.47;;;1.64;93.89
26657;BME280;14279;50.010;8.260;2023-12-07T08:11:17;101016.91;;;1.10;94.05
26657;BME280;14279;50.010;8.260;2023-12-07T08:13:42;101029.44;;;0.48;94.53
26657;BME280;14279;50.010;8.260;2023-12-07T08:16:08;101035.34;;;0.37;95.22
26657;BME280;14279;50.010;8.260;2023-12-07T08:18:36;101029.34;;;0.31;95.82
26657;BME280;14279;50.010;8.260;2023-12-07T08:21:01;101030.19;;;0.33;96.81
26657;BME280;14279;50.010;8.260;2023-12-07T08:23:27;101034.41;;;0.24;96.44
26657;BME280;14279;50.010;8.260;2023-12-07T08:25:53;101015.69;;;0.33;96.69
26657;BME280;14279;50.010;8.260;2023-12-07T08:28:18;101020.81;;;0.36;96.70
26657;BME280;14279;50.010;8.260;2023-12-07T08:30:43;101020.97;;;0.56;96.95
26657;BME280;14279;50.010;8.260;2023-12-07T08:33:08;101013.34;;;0.67;95.87
26657;BME280;14279;50.010;8.260;2023-12-07T08:35:34;101010.84;;;0.83;95.09
26657;BME280;14279;50.010;8.260;2023-12-07T08:37:59;101013.31;;;0.66;95.49
26657;BME280;14279;50.010;8.260;2023-12-07T08:40:24;101019.34;;;0.77;95.49
26657;BME280;14279;50.010;8.260;2023-12-07T08:42:50;101016.88;;;0.99;94.48
26657;BME280;14279;50.010;8.260;2023-12-07T08:45:15;101013.50;;;1.11;94.24
26657;BME280;14279;50.010;8.260;2023-12-07T08:47:41;101015.22;;;1.12;92.73
26657;BME280;14279;50.010;8.260;2023-12-07T08:50:07;101005.88;;;1.31;92.16
26657;BME280;14279;50.010;8.260;2023-12-07T08:52:35;101004.19;;;1.45;91.73
26657;BME280;14279;50.010;8.260;2023-12-07T08:55:00;100999.06;;;1.53;90.59
26657;BME280;14279;50.010;8.260;2023-12-07T08:57:26;101007.59;;;1.46;91.18
26657;BME280;14279;50.010;8.260;2023-12-07T08:59:51;101012.75;;;1.52;90.87
26657;BME280;14279;50.010;8.260;2023-12-07T09:02:16;101017.84;;;1.33;90.96
26657;BME280;14279;50.010;8.260;2023-12-07T09:04:42;101027.19;;;1.14;92.54
26657;BME280;14279;50.010;8.260;2023-12-07T09:07:07;101024.53;;;0.93;93.50
26657;BME280;14279;50.010;8.260;2023-12-07T09:09:34;101023.66;;;0.87;94.26
26657;BME280;14279;50.010;8.260;2023-12-07T09:11:59;101017.66;;;0.85;94.51
26657;BME280;14279;50.010;8.260;2023-12-07T09:14:25;101014.38;;;1.08;94.41
26657;BME280;14279;50.010;8.260;2023-12-07T09:16:51;101011.84;;;1.19;94.70
26657;BME280;14279;50.010;8.260;2023-12-07T09:19:17;101023.84;;;1.43;93.40
26657;BME280;14279;50.010;8.260;2023-12-07T09:21:42;101011.84;;;1.25;93.64
26657;BME280;14279;50.010;8.260;2023-12-07T09:24:07;101019.56;;;1.42;93.64
26657;BME280;14279;50.010;8.260;2023-12-07T09:26:33;101017.81;;;1.27;93.80
26657;BME280;14279;50.010;8.260;2023-12-07T09:28:59;101014.31;;;0.99;94.37
26657;BME280;14279;50.010;8.260;2023-12-07T09:31:24;101018.56;;;0.98;96.77
26657;BME280;14279;50.010;8.260;2023-12-07T09:33:49;101021.16;;;0.97;95.85
26657;BME280;14279;50.010;8.260;2023-12-07T09:36:18;101025.44;;;1.02;96.85
26657;BME280;14279;50.010;8.260;2023-12-07T09:38:44;101025.50;;;1.24;95.74
26657;BME280;14279;50.010;8.260;2023-12-07T09:41:09;101030.56;;;1.01;95.10
26657;BME280;14279;50.010;8.260;2023-12-07T09:43:35;101032.31;;;1.08;95.52
26657;BME280;14279;50.010;8.260;2023-12-07T09:46:00;101033.97;;;0.98;95.22
26657;BME280;14279;50.010;8.260;2023-12-07T09:48:26;101028.03;;;1.10;95.75
26657;BME280;14279;50.010;8.260;2023-12-07T09:50:52;101032.34;;;1.24;94.93
26657;BME280;14279;50.010;8.260;2023-12-07T09:53:20;101022.09;;;1.25;95.46
26657;BME280;14279;50.010;8.260;2023-12-07T09:55:46;101012.75;;;1.47;94.99
26657;BME280;14279;50.010;8.260;2023-12-07T09:58:11;101011.06;;;1.53;94.02
26657;BME280;14279;50.010;8.260;2023-12-07T10:00:37;101013.63;;;1.54;94.35
26657;BME280;14279;50.010;8.260;2023-12-07T10:03:03;101012.78;;;1.69;93.25
26657;BME280;14279;50.010;8.260;2023-12-07T10:05:29;101018.72;;;1.31;94.29
26657;BME280;14279;50.010;8.260;2023-12-07T10:07:54;101011.03;;;1.59;94.87
26657;BME280;14279;50.010;8.260;2023-12-07T10:10:20;101010.16;;;1.46;94.29
26657;BME280;14279;50.010;8.260;2023-12-07T10:12:47;101014.44;;;1.42;95.05
26657;BME280;14279;50.010;8.260;2023-12-07T10:15:17;101005.94;;;1.53;94.71
26657;BME280;14279;50.010;8.260;2023-12-07T10:17:50;100999.91;;;1.44;95.04
26657;BME280;14279;50.010;8.260;2023-12-07T10:20:17;100993.94;;;1.61;94.91
26657;BME280;14279;50.010;8.260;2023-12-07T10:22:42;100988.78;;;1.47;95.19
26657;BME280;14279;50.010;8.260;2023-12-07T10:25:10;100983.66;;;1.30;95.75
26657;BME280;14279;50.010;8.260;2023-12-07T10:27:35;100974.25;;;1.38;95.74
26657;BME280;14279;50.010;8.260;2023-12-07T10:30:04;100980.19;;;1.17;96.05
26657;BME280;14279;50.010;8.260;2023-12-07T10:32:30;100981.91;;;1.24;96.49
26657;BME280;14279;50.010;8.260;2023-12-07T10:34:55;100993.06;;;1.42;96.25
26657;BME280;14279;50.010;8.260;2023-12-07T10:37:23;100999.06;;;1.42;96.33
26657;BME280;14279;50.010;8.260;2023-12-07T10:39:49;100987.09;;;1.40;95.88
26657;BME280;14279;50.010;8.260;2023-12-07T10:42:16;100979.41;;;1.54;95.97
26657;BME280;14279;50.010;8.260;2023-12-07T10:44:44;100991.41;;;1.65;94.54
26657;BME280;14279;50.010;8.260;2023-12-07T10:47:13;100983.69;;;1.48;95.19
26657;BME280;14279;50.010;8.260;2023-12-07T10:49:43;100982.84;;;1.63;95.31
26657;BME280;14279;50.010;8.260;2023-12-07T10:52:12;100987.97;;;1.63;95.06
26657;BME280;14279;50.010;8.260;2023-12-07T10:54:53;100976.84;;;1.47;95.38
26657;BME280;14279;50.010;8.260;2023-12-07T10:57:23;100975.97;;;1.44;96.05
26657;BME280;14279;50.010;8.260;2023-12-07T10:59:51;100980.25;;;1.57;95.33
26657;BME280;14279;50.010;8.260;2023-12-07T11:02:20;100975.97;;;1.48;95.89
26657;BME280;14279;50.010;8.260;2023-12-07T11:04:46;100970.00;;;1.54;95.86
26657;BME280;14279;50.010;8.260;2023-12-07T11:07:15;100961.44;;;1.52;95.21
26657;BME280;14279;50.010;8.260;2023-12-07T11:09:50;100959.75;;;1.53;96.16
26657;BME280;14279;50.010;8.260;2023-12-07T11:12:38;100954.56;;;1.37;95.63
26657;BME280;14279;50.010;8.260;2023-12-07T11:15:06;100952.03;;;1.63;96.32
26657;BME280;14279;50.010;8.260;2023-12-07T11:17:49;100948.59;;;1.60;95.45
26657;BME280;14279;50.010;8.260;2023-12-07T11:20:42;100946.06;;;1.68;95.94
26657;BME280;14279;50.010;8.260;2023-12-07T11:23:10;100936.63;;;1.43;96.38
26657;BME280;14279;50.010;8.260;2023-12-07T11:25:37;100925.50;;;1.72;95.95
26657;BME280;14279;50.010;8.260;2023-12-07T11:28:04;100918.66;;;1.93;95.27
26657;BME280;14279;50.010;8.260;2023-12-07T11:30:31;100903.19;;;2.08;93.95
26657;BME280;14279;50.010;8.260;2023-12-07T11:32:59;100907.47;;;2.06;93.38
26657;BME280;14279;50.010;8.260;2023-12-07T11:35:24;100901.50;;;2.12;93.48
26657;BME280;14279;50.010;8.260;2023-12-07T11:40:47;100896.28;;;2.29;92.96
26657;BME280;14279;50.010;8.260;2023-12-07T11:46:09;100886.03;;;2.28;92.80
26657;BME280;14279;50.010;8.260;2023-12-07T11:48:35;100877.47;;;2.19;93.17
26657;BME280;14279;50.010;8.260;2023-12-07T11:51:06;100867.25;;;2.05;93.42
26657;BME280;14279;50.010;8.260;2023-12-07T11:53:36;100864.66;;;2.24;92.92
26657;BME280;14279;50.010;8.260;2023-12-07T11:56:06;100869.78;;;2.21;92.83
26657;BME280;14279;50.010;8.260;2023-12-07T11:58:33;100862.06;;;2.19;93.00
26657;BME280;14279;50.010;8.260;2023-12-07T12:01:00;100855.19;;;2.29;93.21
26657;BME280;14279;50.010;8.260;2023-12-07T12:03:27;100850.84;;;2.45;92.18
26657;BME280;14279;50.010;8.260;2023-12-07T12:05:53;100848.34;;;2.33;92.62
26657;BME280;14279;50.010;8.260;2023-12-07T12:08:20;100850.00;;;2.42;92.94
26657;BME280;14279;50.010;8.260;2023-12-07T12:10:45;100850.91;;;2.30;92.99
26657;BME280;14279;50.010;8.260;2023-12-07T12:13:12;100844.06;;;2.22;93.45
26657;BME280;14279;50.010;8.260;2023-12-07T12:15:38;100845.78;;;2.23;93.65
26657;BME280;14279;50.010;8.260;2023-12-07T12:18:05;100852.66;;;2.21;93.97
26657;BME280;14279;50.010;8.260;2023-12-07T12:20:31;100845.81;;;2.22;93.96
26657;BME280;14279;50.010;8.260;2023-12-07T12:22:58;100844.91;;;2.31;93.62
26657;BME280;14279;50.010;8.260;2023-12-07T12:25:25;100846.66;;;2.27;94.05
26657;BME280;14279;50.010;8.260;2023-12-07T12:27:55;100843.28;;;2.14;94.74
26657;BME280;14279;50.010;8.260;2023-12-07T12:30:21;100841.53;;;2.21;94.62
26657;BME280;14279;50.010;8.260;2023-12-07T12:32:50;100836.34;;;2.32;94.38
26657;BME280;14279;50.010;8.260;2023-12-07T12:35:19;100829.47;;;2.38;94.20
26657;BME280;14279;50.010;8.260;2023-12-07T12:37:45;100830.34;;;2.36;93.95
26657;BME280;14279;50.010;8.260;2023-12-07T12:40:13;100826.91;;;2.40;93.61
26657;BME280;14279;50.010;8.260;2023-12-07T12:42:44;100823.53;;;2.24;94.33
26657;BME280;14279;50.010;8.260;2023-12-07T12:45:10;100830.38;;;2.28;94.34
26657;BME280;14279;50.010;8.260;2023-12-07T12:47:36;100824.34;;;2.31;94.41
26657;BME280;14279;50.010;8.260;2023-12-07T12:50:02;100825.19;;;2.34;94.42
26657;BME280;14279;50.010;8.260;2023-12-07T12:52:30;100814.06;;;2.29;94.29
26657;BME280;14279;50.010;8.260;2023-12-07T12:54:56;100818.38;;;2.32;95.13
26657;BME280;14279;50.010;8.260;2023-12-07T12:57:23;100815.81;;;2.25;94.80
26657;BME280;14279;50.010;8.260;2023-12-07T12:59:48;100817.53;;;2.28;94.93
26657;BME280;14279;50.010;8.260;2023-12-07T13:02:15;100813.28;;;2.21;95.17